Terminal Aerodrome Forecast
Issued by NWS

Home | Current Version | Previous Version | Text Only | Print | Product List | Glossary Off
Versions: 1 2 3 4 5 6 7 8 9 10 11 12 13 14 15 16 17 18 19

153
FTUS43 KJKL 212323
TAFSME
TAF
KSME 212323Z 2200/2224 00000KT P6SM SKC
     FM220700 00000KT 3SM BR SKC
     FM220900 00000KT 1/2SM FG VV002
     FM221300 05004KT P6SM SKC
     FM222000 05004KT P6SM SCT040=

USA.gov is the U.S. government's official web portal to all federal, state and local government web resources and services.